Diosdado Macapagal International Airport
RPLC : rendu visible

Aérodrome :











RETROUVEZ-NOUS SUR...

 
LOGIN :

S'inscrire | Disclaimer

   EN    FR    IT 

 









Légende :    VFR   VFR Marginal   IFR   IFR Intensif   IFR Très Intensif
Visi : 
Plafond : 
>= 8 km
>= 3000ft
5 à 8 km
1000 à 3000 ft
1500m à 5 km
500 à 1000 ft
800 à 1500m
200 à 500 ft
< 800m
< 200 ft
Symboles :   Orages  Brouillard  Fortes neiges  Fortes précipitations  Vent > 20 kt






- Altitude de l'aérodrome : 484 ft
- Code IATA : CRK


RPLC - Diosdado Macapagal International

DERNIER METAR :
  • 210000Z 27004KT 5000 -RA SCT015 OVC090 24/24 Q1011 RMK A2985

METARs EXPIRÉS :
  • 202300Z 25005KT 5000 RA SCT015 OVC090 23/23 Q1011 RMK A2985
  • 202200Z 34008KT 5000 -RA SCT015 OVC090 23/23 Q1011 RMK A2985

TAF TAF RPLC
Valide du 21 à 00h jusqu'au 22 à 06h UTC


202300Z 2100/2206 03006KT 8000 SCT020 BKN100 TX31/2106Z TN25/2122Z
TEMPO 2100/2106 34008KT 6000 -RA SCT020 OVC100



MET'MAP, la Météo Aéronautique d'un coup d'oeil ! - Copyright ORBIFLY Décembre 2007 - Disclaimer

ORBIFLY MET'MAP TEAM :

Programmation & Développement : Alexandra Zaïnal
Conception & Développement : Baudouin d'Aumeries
Co-Programmation & Développement : Marc-Olivier Méhu
Soutien technique & logistique : Manuel Goepfert

Contact : metmap@orbifly.com




SOURCES & CREDITS :

   NOAA       Earth
Advisory